createdAt,value
2023-02-12T00:01:07.683Z,33.75
2023-02-12T00:03:34.180Z,36.47
2023-02-12T00:06:02.266Z,41.67
2023-02-12T00:08:28.747Z,41.47
2023-02-12T00:10:55.259Z,40.72
2023-02-12T00:13:21.730Z,41.42
2023-02-12T00:15:48.286Z,40.67
2023-02-12T00:18:14.727Z,31.05
2023-02-12T00:20:41.217Z,30.60
2023-02-12T00:23:08.074Z,30.48
2023-02-12T00:25:34.896Z,29.75
2023-02-12T00:28:01.419Z,29.58
2023-02-12T00:30:27.913Z,31.33
2023-02-12T00:32:55.147Z,30.88
2023-02-12T00:35:21.615Z,32.35
2023-02-12T00:37:49.916Z,30.70
2023-02-12T00:40:16.511Z,31.13
2023-02-12T00:42:43.033Z,30.67
2023-02-12T00:45:09.772Z,29.45
2023-02-12T00:47:36.213Z,29.50
2023-02-12T00:50:02.695Z,30.80
2023-02-12T00:52:29.152Z,29.88
2023-02-12T00:54:55.577Z,28.00
2023-02-12T00:57:22.061Z,29.45
2023-02-12T00:59:49.407Z,28.73
2023-02-12T01:02:18.113Z,30.27
2023-02-12T01:04:46.704Z,29.38
2023-02-12T01:07:13.262Z,29.45
2023-02-12T01:09:39.724Z,28.60
2023-02-12T01:12:07.139Z,28.80
2023-02-12T01:14:33.690Z,29.50
2023-02-12T01:17:00.186Z,29.58
2023-02-12T01:19:27.799Z,28.42
2023-02-12T01:21:54.257Z,28.35
2023-02-12T01:24:20.723Z,29.73
2023-02-12T01:26:47.191Z,30.58
2023-02-12T01:29:13.667Z,31.27
2023-02-12T01:31:40.606Z,30.42
2023-02-12T01:34:07.732Z,30.83
2023-02-12T01:36:34.649Z,27.90
2023-02-12T01:39:02.967Z,29.50
2023-02-12T01:41:33.391Z,29.23
2023-02-12T01:44:17.518Z,28.35
2023-02-12T01:46:48.250Z,27.83
2023-02-12T01:49:44.016Z,28.98
2023-02-12T01:52:20.697Z,29.77
2023-02-12T01:54:48.491Z,31.17
2023-02-12T01:57:17.406Z,31.38
2023-02-12T01:59:48.424Z,28.65
2023-02-12T02:02:14.882Z,30.00
2023-02-12T02:04:45.826Z,29.95
2023-02-12T02:07:12.653Z,30.85
2023-02-12T02:09:40.278Z,29.77
2023-02-12T02:12:26.294Z,30.10
2023-02-12T02:14:59.930Z,29.63
2023-02-12T02:17:54.295Z,32.40
2023-02-12T02:20:52.585Z,33.65
2023-02-12T02:23:56.060Z,34.33
2023-02-12T02:26:31.588Z,31.40
2023-02-12T02:29:35.922Z,33.97
2023-02-12T02:32:09.206Z,32.78
2023-02-12T02:34:52.366Z,34.72
2023-02-12T02:37:24.526Z,33.05
2023-02-12T02:39:56.174Z,33.08
2023-02-12T02:42:35.821Z,33.90
2023-02-12T02:45:15.428Z,32.42
2023-02-12T02:47:51.368Z,34.40
2023-02-12T02:50:23.008Z,34.08
2023-02-12T02:52:59.444Z,34.70
2023-02-12T02:55:32.430Z,33.47
2023-02-12T02:58:20.665Z,33.20
2023-02-12T03:01:06.034Z,32.85
2023-02-12T03:03:37.813Z,33.90
2023-02-12T03:06:10.669Z,36.58
2023-02-12T03:08:44.747Z,36.08
2023-02-12T03:11:19.248Z,34.92
2023-02-12T03:13:52.489Z,34.60
2023-02-12T03:16:22.642Z,33.90
2023-02-12T03:19:17.001Z,32.95
2023-02-12T03:21:51.821Z,34.40
2023-02-12T03:24:31.681Z,33.85
2023-02-12T03:27:07.003Z,33.75
2023-02-12T03:29:33.519Z,36.65
2023-02-12T03:32:16.931Z,34.70
2023-02-12T03:35:02.679Z,34.45
2023-02-12T03:37:35.566Z,34.60
2023-02-12T03:40:16.022Z,31.95
2023-02-12T03:43:00.381Z,32.97
2023-02-12T03:45:43.851Z,32.70
2023-02-12T03:48:22.896Z,34.72
2023-02-12T03:50:58.647Z,36.95
2023-02-12T03:53:29.598Z,36.25
2023-02-12T03:56:11.762Z,35.30
2023-02-12T03:58:41.183Z,35.75
2023-02-12T04:01:08.569Z,36.58
2023-02-12T04:03:35.366Z,34.58
2023-02-12T04:06:01.823Z,33.95
2023-02-12T04:08:30.952Z,33.00
2023-02-12T04:11:25.352Z,34.13
2023-02-12T04:14:13.123Z,37.05
2023-02-12T04:17:00.110Z,35.95
2023-02-12T04:19:51.774Z,36.85
2023-02-12T04:25:09.837Z,35.22
2023-02-12T04:27:50.689Z,35.35
2023-02-12T04:30:35.102Z,36.22
2023-02-12T04:33:05.141Z,38.13
2023-02-12T04:35:37.099Z,40.13
2023-02-12T04:38:22.917Z,39.17
2023-02-12T04:40:50.427Z,39.97
2023-02-12T04:43:27.064Z,41.65
2023-02-12T04:45:53.834Z,40.53
2023-02-12T04:48:20.481Z,43.63
2023-02-12T04:50:46.899Z,41.65
2023-02-12T04:53:13.755Z,46.80
2023-02-12T04:55:40.248Z,43.83
2023-02-12T04:58:07.049Z,47.15
2023-02-12T05:00:33.647Z,45.47
2023-02-12T05:03:00.110Z,44.83
2023-02-12T05:05:26.616Z,45.00
2023-02-12T05:07:53.142Z,45.80
2023-02-12T05:10:19.781Z,45.30
2023-02-12T05:12:46.302Z,44.80
2023-02-12T05:15:12.754Z,45.05
2023-02-12T05:17:39.353Z,46.03
2023-02-12T05:20:06.510Z,47.00
2023-02-12T05:22:33.029Z,45.75
2023-02-12T05:24:59.463Z,42.70
2023-02-12T05:27:25.955Z,47.28
2023-02-12T05:29:52.410Z,44.33
2023-02-12T05:32:19.001Z,44.90
2023-02-12T05:34:45.488Z,44.80
2023-02-12T05:37:11.930Z,46.33
2023-02-12T05:39:38.573Z,46.03
2023-02-12T05:42:05.037Z,44.88
2023-02-12T05:44:31.548Z,46.03
2023-02-12T05:46:57.981Z,46.65
2023-02-12T05:49:24.406Z,44.40
2023-02-12T05:51:50.914Z,48.30
2023-02-12T05:54:17.451Z,45.90
2023-02-12T05:56:46.609Z,45.97
2023-02-12T05:59:16.597Z,45.83
2023-02-12T06:01:45.472Z,48.83
2023-02-12T06:04:19.639Z,49.60
2023-02-12T06:06:46.463Z,47.47
2023-02-12T06:09:13.784Z,49.47
2023-02-12T06:11:40.817Z,49.95
2023-02-12T06:14:09.335Z,49.20
2023-02-12T06:16:35.991Z,48.78
2023-02-12T06:19:05.719Z,53.30
2023-02-12T06:21:33.437Z,51.40
2023-02-12T06:23:59.975Z,60.47
2023-02-12T06:26:26.499Z,78.35
2023-02-12T06:28:53.219Z,98.78
2023-02-12T06:31:28.756Z,89.28
2023-02-12T06:33:57.828Z,66.28
2023-02-12T06:36:25.436Z,57.65
2023-02-12T06:38:52.705Z,56.40
2023-02-12T06:41:20.095Z,48.42
2023-02-12T06:43:46.620Z,50.00
2023-02-12T06:46:14.565Z,49.05
2023-02-12T06:48:41.147Z,49.90
2023-02-12T06:51:16.812Z,49.92
2023-02-12T06:53:44.539Z,49.95
2023-02-12T06:56:13.440Z,46.00
2023-02-12T06:58:41.168Z,42.60
2023-02-12T07:01:13.836Z,44.30
2023-02-12T07:03:41.587Z,42.78
2023-02-12T07:06:09.212Z,43.95
2023-02-12T07:08:36.141Z,45.17
2023-02-12T07:11:03.535Z,43.65
2023-02-12T07:13:30.190Z,46.85
2023-02-12T07:15:56.995Z,43.70
2023-02-12T07:18:23.719Z,42.60
2023-02-12T07:20:50.137Z,44.95
2023-02-12T07:23:16.585Z,40.25
2023-02-12T07:25:43.014Z,42.95
2023-02-12T07:28:09.477Z,43.90
2023-02-12T07:30:35.986Z,42.58
2023-02-12T07:33:02.484Z,43.67
2023-02-12T07:35:28.959Z,44.25
2023-02-12T07:37:55.393Z,42.60
2023-02-12T07:40:21.833Z,43.17
2023-02-12T07:42:53.561Z,40.35
2023-02-12T07:45:20.040Z,43.63
2023-02-12T07:47:46.479Z,43.25
2023-02-12T07:50:13.019Z,39.97
2023-02-12T07:52:39.477Z,39.83
2023-02-12T07:55:06.368Z,40.35
2023-02-12T07:57:34.832Z,40.30
2023-02-12T08:00:01.328Z,38.08
2023-02-12T08:02:27.867Z,38.33
2023-02-12T08:04:58.156Z,37.40
2023-02-12T08:07:25.068Z,39.20
2023-02-12T08:09:51.709Z,36.13
2023-02-12T08:12:18.926Z,38.85
2023-02-12T08:14:45.448Z,36.50
2023-02-12T08:17:11.951Z,38.25
2023-02-12T08:19:38.386Z,36.60
2023-02-12T08:22:06.463Z,35.50
2023-02-12T08:24:33.120Z,34.35
2023-02-12T08:26:59.597Z,34.08
2023-02-12T08:29:29.431Z,31.98
2023-02-12T08:31:59.085Z,32.97
2023-02-12T08:34:31.645Z,32.53
2023-02-12T08:36:58.915Z,32.25
2023-02-12T08:39:26.883Z,27.77
2023-02-12T08:41:58.518Z,30.33
2023-02-12T08:44:25.912Z,29.30
2023-02-12T08:46:53.195Z,33.65
2023-02-12T08:49:22.691Z,30.92
2023-02-12T08:51:52.428Z,29.27
2023-02-12T08:54:22.321Z,25.95
2023-02-12T08:56:48.788Z,23.05
2023-02-12T08:59:16.639Z,23.08
2023-02-12T09:01:44.023Z,27.33
2023-02-12T09:04:17.841Z,23.08
2023-02-12T09:06:45.545Z,23.75
2023-02-12T09:09:12.009Z,24.25
2023-02-12T09:11:38.577Z,22.60
2023-02-12T09:14:07.707Z,22.58
2023-02-12T09:16:35.968Z,20.50
2023-02-12T09:19:03.393Z,22.48
2023-02-12T09:21:30.107Z,20.73
2023-02-12T09:23:56.851Z,24.13
2023-02-12T09:26:27.888Z,26.88
2023-02-12T09:28:55.444Z,28.23
2023-02-12T09:31:32.510Z,27.77
2023-02-12T09:34:05.142Z,26.33
2023-02-12T09:36:32.872Z,25.38
2023-02-12T09:39:00.442Z,25.92
2023-02-12T09:41:32.669Z,25.55
2023-02-12T09:44:22.998Z,24.55
2023-02-12T09:47:02.746Z,22.45
2023-02-12T09:49:57.004Z,19.35
2023-02-12T09:52:28.182Z,17.27
2023-02-12T09:54:56.030Z,17.40
2023-02-12T09:57:34.568Z,19.92
2023-02-12T10:00:07.790Z,15.88
2023-02-12T10:02:39.508Z,12.25
2023-02-12T10:05:16.031Z,13.25
2023-02-12T10:08:01.281Z,12.48
2023-02-12T10:10:51.666Z,14.38
2023-02-12T10:13:43.588Z,14.43
2023-02-12T10:16:20.013Z,14.55
2023-02-12T10:19:03.905Z,12.75
2023-02-12T10:21:47.819Z,9.20
2023-02-12T10:24:34.366Z,11.18
2023-02-12T10:27:17.124Z,9.13
2023-02-12T10:29:47.311Z,8.38
2023-02-12T10:32:24.632Z,13.40
2023-02-12T10:34:52.619Z,17.88
2023-02-12T10:37:37.150Z,13.32
2023-02-12T10:40:16.569Z,11.77
2023-02-12T10:42:46.727Z,15.55
2023-02-12T10:45:16.107Z,14.25
2023-02-12T10:47:44.280Z,12.77
2023-02-12T10:50:19.653Z,12.40
2023-02-12T10:52:56.095Z,8.02
2023-02-12T10:55:36.939Z,6.47
2023-02-12T10:58:05.036Z,4.18
2023-02-12T11:00:35.094Z,5.20
2023-02-12T11:03:03.471Z,5.28
2023-02-12T11:05:33.344Z,5.15
2023-02-12T11:08:00.371Z,4.15
2023-02-12T11:10:38.807Z,5.43
2023-02-12T11:13:05.512Z,6.10
2023-02-12T11:15:47.892Z,5.97
2023-02-12T11:18:26.648Z,7.25
2023-02-12T11:21:00.029Z,6.40
2023-02-12T11:23:30.027Z,7.32
2023-02-12T11:26:03.721Z,4.90
2023-02-12T11:28:31.930Z,5.30
2023-02-12T11:31:02.008Z,5.20
2023-02-12T11:33:33.320Z,5.35
2023-02-12T11:36:06.698Z,7.05
2023-02-12T11:38:37.556Z,6.47
2023-02-12T11:41:09.166Z,8.77
2023-02-12T11:43:39.495Z,8.55
2023-02-12T11:46:08.586Z,6.43
2023-02-12T11:48:39.039Z,7.68
2023-02-12T11:51:09.144Z,7.53
2023-02-12T11:53:40.572Z,7.63
2023-02-12T11:58:37.652Z,6.35
2023-02-12T12:01:09.921Z,5.90
2023-02-12T12:03:44.236Z,5.20
2023-02-12T12:06:29.647Z,5.60
2023-02-12T12:09:03.500Z,6.85
2023-02-12T12:11:58.046Z,6.35
2023-02-12T12:14:29.514Z,7.18
2023-02-12T12:17:22.677Z,7.00
2023-02-12T12:20:06.720Z,6.20
2023-02-12T12:23:00.733Z,7.05
2023-02-12T12:25:55.961Z,5.97
2023-02-12T12:28:42.163Z,5.72
2023-02-12T12:31:17.119Z,6.38
2023-02-12T12:33:54.961Z,5.40
2023-02-12T12:36:51.738Z,4.57
2023-02-12T12:39:29.061Z,5.03
2023-02-12T12:42:19.810Z,5.38
2023-02-12T12:45:20.781Z,5.78
2023-02-12T12:48:19.265Z,6.40
2023-02-12T12:51:04.511Z,5.75
2023-02-12T12:54:08.515Z,5.93
2023-02-12T12:56:49.287Z,4.82
2023-02-12T12:59:44.075Z,6.90
2023-02-12T13:02:19.257Z,6.57
2023-02-12T13:05:08.818Z,5.82
2023-02-12T13:07:57.627Z,6.35
2023-02-12T13:10:36.570Z,6.75
2023-02-12T13:13:26.316Z,6.70
2023-02-12T13:16:14.064Z,6.20
2023-02-12T13:18:53.302Z,6.05
2023-02-12T13:21:47.198Z,6.80
2023-02-12T13:24:33.870Z,7.95
2023-02-12T13:27:23.261Z,7.28
2023-02-12T13:29:55.025Z,6.93
2023-02-12T13:32:29.055Z,7.28
2023-02-12T13:34:57.499Z,8.02
2023-02-12T13:37:44.778Z,7.53
2023-02-12T13:40:21.055Z,7.05
2023-02-12T13:43:06.097Z,7.68
2023-02-12T13:45:49.270Z,7.05
2023-02-12T13:48:21.113Z,7.13
2023-02-12T13:51:01.515Z,7.63
2023-02-12T13:53:52.077Z,7.57
2023-02-12T13:56:41.086Z,6.03
2023-02-12T13:59:41.090Z,8.30
2023-02-12T14:02:44.379Z,9.82
2023-02-12T14:05:29.909Z,9.70
2023-02-12T14:08:01.889Z,7.40
2023-02-12T14:10:35.796Z,6.90
2023-02-12T14:13:23.132Z,6.68
2023-02-12T14:15:55.471Z,6.70
2023-02-12T14:18:40.368Z,7.15
2023-02-12T14:21:12.725Z,7.60
2023-02-12T14:23:42.171Z,8.70
2023-02-12T14:26:14.425Z,8.55
2023-02-12T14:28:54.965Z,7.53
2023-02-12T14:31:31.445Z,6.63
2023-02-12T14:34:11.227Z,7.30
2023-02-12T14:36:43.943Z,6.78
2023-02-12T14:39:19.366Z,6.22
2023-02-12T14:41:54.956Z,5.80
2023-02-12T14:44:23.016Z,5.25
2023-02-12T14:46:53.847Z,5.50
2023-02-12T14:49:34.428Z,6.40
2023-02-12T14:52:14.705Z,6.70
2023-02-12T14:54:49.326Z,6.07
2023-02-12T14:57:18.540Z,6.55
2023-02-12T14:59:46.146Z,6.05
2023-02-12T15:02:23.126Z,5.55
2023-02-12T15:04:53.082Z,6.30
2023-02-12T15:07:44.439Z,5.97
2023-02-12T15:10:23.120Z,6.03
2023-02-12T15:13:08.591Z,5.85
2023-02-12T15:16:08.438Z,5.35
2023-02-12T15:18:40.780Z,6.38
2023-02-12T15:21:19.894Z,6.05
2023-02-12T15:23:47.666Z,7.00
2023-02-12T15:26:20.707Z,5.80
2023-02-12T15:28:50.232Z,6.80
2023-02-12T15:31:20.102Z,7.05
2023-02-12T15:33:50.648Z,6.70
2023-02-12T15:36:26.190Z,6.63
2023-02-12T15:38:55.937Z,6.30
2023-02-12T15:41:41.993Z,6.32
2023-02-12T15:44:25.997Z,6.07
2023-02-12T15:46:54.396Z,6.22
2023-02-12T15:49:22.357Z,7.82
2023-02-12T15:51:48.863Z,7.85
2023-02-12T15:54:19.639Z,8.82
2023-02-12T15:56:46.255Z,10.02
2023-02-12T15:59:25.193Z,12.25
2023-02-12T16:01:56.005Z,12.60
2023-02-12T16:04:23.265Z,12.90
2023-02-12T16:06:50.459Z,13.48
2023-02-12T16:09:27.462Z,12.85
2023-02-12T16:11:55.942Z,14.63
2023-02-12T16:14:26.546Z,15.80
2023-02-12T16:16:55.639Z,15.30
2023-02-12T16:19:23.299Z,15.57
2023-02-12T16:21:54.803Z,15.48
2023-02-12T16:24:32.276Z,17.33
2023-02-12T16:27:07.131Z,17.42
2023-02-12T16:29:38.076Z,18.52
2023-02-12T16:32:04.767Z,18.08
2023-02-12T16:34:37.320Z,16.17
2023-02-12T16:37:35.502Z,16.40
2023-02-12T16:40:13.589Z,17.10
2023-02-12T16:42:56.623Z,17.30
2023-02-12T16:45:26.506Z,18.75
2023-02-12T16:48:18.096Z,17.73
2023-02-12T16:53:24.105Z,17.67
2023-02-12T16:55:51.108Z,18.58
2023-02-12T16:58:17.585Z,19.35
2023-02-12T17:00:44.265Z,21.45
2023-02-12T17:03:13.967Z,19.73
2023-02-12T17:05:42.675Z,24.55
2023-02-12T17:08:17.452Z,20.10
2023-02-12T17:10:44.757Z,18.15
2023-02-12T17:13:11.568Z,18.50
2023-02-12T17:15:45.071Z,18.20
2023-02-12T17:18:12.324Z,18.85
2023-02-12T17:20:38.859Z,20.95
2023-02-12T17:23:05.910Z,22.55
2023-02-12T17:25:33.915Z,23.10
2023-02-12T17:28:00.468Z,24.35
2023-02-12T17:30:28.894Z,23.85
2023-02-12T17:32:55.533Z,23.85
2023-02-12T17:35:21.957Z,22.90
2023-02-12T17:37:48.436Z,22.33
2023-02-12T17:40:15.154Z,21.33
2023-02-12T17:42:41.731Z,31.40
2023-02-12T17:45:08.623Z,38.05
2023-02-12T17:47:39.746Z,32.17
2023-02-12T17:50:11.576Z,38.53
2023-02-12T17:52:38.609Z,37.08
2023-02-12T17:55:06.271Z,36.70
2023-02-12T17:57:33.029Z,28.90
2023-02-12T17:59:59.677Z,34.65
2023-02-12T18:02:26.178Z,28.20
2023-02-12T18:04:52.640Z,28.50
2023-02-12T18:07:19.108Z,33.45
2023-02-12T18:09:45.572Z,33.28
2023-02-12T18:12:12.078Z,24.73
2023-02-12T18:14:38.800Z,27.63
2023-02-12T18:17:05.301Z,27.75
2023-02-12T18:19:31.771Z,27.50
2023-02-12T18:21:58.347Z,30.00
2023-02-12T18:24:24.814Z,29.63
2023-02-12T18:26:51.704Z,28.90
2023-02-12T18:29:18.207Z,27.40
2023-02-12T18:31:44.831Z,27.42
2023-02-12T18:34:11.359Z,25.45
2023-02-12T18:36:37.833Z,25.33
2023-02-12T18:39:04.447Z,25.30
2023-02-12T18:41:32.340Z,26.70
2023-02-12T18:43:59.419Z,24.13
2023-02-12T18:46:28.798Z,27.55
2023-02-12T18:48:56.311Z,26.15
2023-02-12T18:51:26.620Z,26.73
2023-02-12T18:54:02.461Z,28.02
2023-02-12T18:56:30.815Z,29.17
2023-02-12T18:58:59.106Z,27.80
2023-02-12T19:01:27.140Z,28.20
2023-02-12T19:03:55.712Z,27.20
2023-02-12T19:06:26.189Z,28.20
2023-02-12T19:08:56.841Z,29.57
2023-02-12T19:11:23.578Z,29.55
2023-02-12T19:13:50.075Z,28.10
2023-02-12T19:16:18.454Z,29.10
2023-02-12T19:18:44.913Z,28.92
2023-02-12T19:21:13.311Z,30.58
2023-02-12T19:23:40.438Z,31.13
2023-02-12T19:26:10.350Z,32.92
2023-02-12T19:28:40.534Z,32.92
2023-02-12T19:31:15.643Z,32.20
2023-02-12T19:33:43.509Z,32.00
2023-02-12T19:36:12.027Z,30.70
2023-02-12T19:38:38.725Z,28.40
2023-02-12T19:41:08.211Z,28.83
2023-02-12T19:43:34.771Z,27.88
2023-02-12T19:46:06.474Z,30.15
2023-02-12T19:48:33.300Z,26.88
2023-02-12T19:51:00.132Z,28.30
2023-02-12T19:53:27.218Z,28.23
2023-02-12T19:55:53.841Z,27.92
2023-02-12T19:58:20.902Z,25.80
2023-02-12T20:00:47.630Z,27.30
2023-02-12T20:03:14.109Z,25.17
2023-02-12T20:05:51.953Z,26.08
2023-02-12T20:08:21.238Z,27.58
2023-02-12T20:10:47.666Z,27.27
2023-02-12T20:13:14.104Z,25.98
2023-02-12T20:15:40.570Z,25.08
2023-02-12T20:18:07.724Z,25.88
2023-02-12T20:20:35.170Z,25.60
2023-02-12T20:23:01.819Z,26.08
2023-02-12T20:25:28.564Z,27.15
2023-02-12T20:27:54.991Z,29.42
2023-02-12T20:30:21.795Z,30.08
2023-02-12T20:32:48.274Z,28.75
2023-02-12T20:35:15.626Z,29.20
2023-02-12T20:37:45.448Z,29.85
2023-02-12T20:40:12.297Z,27.95
2023-02-12T20:42:38.749Z,28.92
2023-02-12T20:45:05.883Z,30.70
2023-02-12T20:47:33.994Z,30.90
2023-02-12T20:50:00.486Z,31.17
2023-02-12T20:52:27.193Z,30.67
2023-02-12T20:54:53.707Z,32.08
2023-02-12T20:57:20.152Z,32.17
2023-02-12T20:59:48.920Z,32.33
2023-02-12T21:02:15.892Z,29.77
2023-02-12T21:04:42.400Z,30.75
2023-02-12T21:07:08.826Z,32.15
2023-02-12T21:09:35.264Z,30.40
2023-02-12T21:12:01.692Z,33.83
2023-02-12T21:14:28.162Z,33.13
2023-02-12T21:16:55.808Z,34.13
2023-02-12T21:19:24.514Z,35.42
2023-02-12T21:21:51.343Z,37.60
2023-02-12T21:24:21.876Z,37.35
2023-02-12T21:26:48.814Z,39.42
2023-02-12T21:29:15.309Z,42.47
2023-02-12T21:31:44.698Z,39.50
2023-02-12T21:34:16.825Z,40.40
2023-02-12T21:36:45.430Z,40.38
2023-02-12T21:39:14.997Z,44.67
2023-02-12T21:41:42.797Z,50.58
2023-02-12T21:44:15.645Z,44.33
2023-02-12T21:46:42.818Z,44.28
2023-02-12T21:49:11.696Z,40.15
2023-02-12T21:51:43.848Z,43.40
2023-02-12T21:54:15.341Z,55.65
2023-02-12T21:59:10.124Z,46.13
2023-02-12T22:01:39.552Z,43.25
2023-02-12T22:04:07.154Z,43.53
2023-02-12T22:06:37.840Z,52.33
2023-02-12T22:09:08.692Z,44.80
2023-02-12T22:11:36.568Z,50.38
2023-02-12T22:14:04.391Z,51.08
2023-02-12T22:16:31.430Z,51.08
2023-02-12T22:19:00.204Z,50.15
2023-02-12T22:21:29.143Z,51.65
2023-02-12T22:23:56.437Z,44.85
2023-02-12T22:26:25.218Z,41.75
2023-02-12T22:29:00.990Z,47.45
2023-02-12T22:31:30.813Z,38.78
2023-02-12T22:34:02.031Z,42.80
2023-02-12T22:36:29.522Z,46.35
2023-02-12T22:38:59.629Z,44.17
2023-02-12T22:41:27.192Z,46.10
2023-02-12T22:43:54.001Z,45.83
2023-02-12T22:46:20.446Z,45.55
2023-02-12T22:48:46.915Z,46.60
2023-02-12T22:51:18.608Z,46.95
2023-02-12T22:53:45.414Z,49.33
2023-02-12T22:56:14.958Z,46.20
2023-02-12T22:58:41.804Z,46.53
2023-02-12T23:01:11.345Z,46.75
2023-02-12T23:03:37.934Z,45.83
2023-02-12T23:06:07.313Z,39.03
2023-02-12T23:08:34.927Z,39.15
2023-02-12T23:11:01.759Z,40.00
2023-02-12T23:13:30.343Z,42.75
2023-02-12T23:15:57.844Z,42.55
2023-02-12T23:18:25.746Z,37.88
2023-02-12T23:20:53.242Z,47.90
2023-02-12T23:23:21.205Z,49.20
2023-02-12T23:25:48.118Z,39.20
2023-02-12T23:28:15.604Z,41.85
2023-02-12T23:30:42.215Z,42.78
2023-02-12T23:33:09.072Z,44.65
2023-02-12T23:35:35.500Z,41.53
2023-02-12T23:38:01.983Z,42.08
2023-02-12T23:40:28.375Z,42.22
2023-02-12T23:42:54.744Z,46.38
2023-02-12T23:45:21.131Z,40.55
2023-02-12T23:47:47.526Z,39.53
2023-02-12T23:50:14.008Z,44.78
2023-02-12T23:52:40.457Z,43.55
2023-02-12T23:55:07.483Z,49.13
2023-02-12T23:57:34.007Z,41.53
